sensor_id;sensor_type;location;lat;lon;timestamp;pressure;altitude;pressure_sealevel;temperature;humidity
15558;BME280;7880;50.110;9.372;2022-08-02T00:04:20;19.447981039021396;;;19.125;82.53961849561502
15558;BME280;7880;50.110;9.372;2022-08-02T00:09:23;19.584137208852916;;;19.187;82.48907942569076
15558;BME280;7880;50.110;9.372;2022-08-02T00:14:27;19.47823794731521;;;19.125;82.8212098284039
15558;BME280;7880;50.110;9.372;2022-08-02T00:19:33;19.387467253865907;;;19.062;83.48665459724045
15558;BME280;7880;50.110;9.372;2022-08-02T00:24:45;19.35721037700423;;;18.937;84.58085081222389
15558;BME280;7880;50.110;9.372;2022-08-02T00:29:44;19.24626858481788;;;18.75;85.45720000363767
15558;BME280;7880;50.110;9.372;2022-08-02T00:34:50;19.145412532339105;;;18.625;86.29120146290825
15558;BME280;7880;50.110;9.372;2022-08-02T00:39:56;18.968914720625616;;;18.5;86.64593729982234
15558;BME280;7880;50.110;9.372;2022-08-02T00:45:00;19.01934263044968;;;18.5;86.16512883587336
15558;BME280;7880;50.110;9.372;2022-08-02T00:50:06;18.73694671029225;;;18.312;88.60124111673383
15558;BME280;7880;50.110;9.372;2022-08-02T00:55:13;18.671390645072098;;;18.187;89.50622090870424
15558;BME280;7880;50.110;9.372;2022-08-02T01:00:18;18.79241726543405;;;18.25;88.49551069106012
15558;BME280;7880;50.110;9.372;2022-08-02T01:04:10;18.696604510489852;;;18.25;88.81542661352466
15558;BME280;7880;50.110;9.372;2022-08-02T01:09:14;18.444466183730402;;;18.0;89.86358476452239
15558;BME280;7880;50.110;9.372;2022-08-02T01:14:18;18.42429514902178;;;17.875;90.41036349804064
15558;BME280;7880;50.110;9.372;2022-08-02T01:19:32;18.520107605360682;;;17.937;89.95784471486253
15558;BME280;7880;50.110;9.372;2022-08-02T01:24:50;18.207456819998335;;;17.812;92.1371411468386
15558;BME280;7880;50.110;9.372;2022-08-02T01:29:41;18.212499565724283;;;17.75;92.36144184610409
15558;BME280;7880;50.110;9.372;2022-08-02T01:34:45;18.318397293199087;;;17.812;91.86846763127407
15558;BME280;7880;50.110;9.372;2022-08-02T01:39:53;18.35369656421244;;;17.812;91.47317154512768
15558;BME280;7880;50.110;9.372;2022-08-02T01:44:52;18.20241407456342;;;17.812;92.26966042921048
15558;BME280;7880;50.110;9.372;2022-08-02T01:49:57;17.87463624557131;;;17.562;94.21882011826517
15558;BME280;7880;50.110;9.372;2022-08-02T01:55:04;18.187285840004915;;;17.562;92.64054442126539
15558;BME280;7880;50.110;9.372;2022-08-02T02:00:09;18.06626005783328;;;17.625;93.78576087053823
15558;BME280;7880;50.110;9.372;2022-08-02T02:05:11;17.950277173891664;;;17.5;94.9305915450567
15558;BME280;7880;50.110;9.372;2022-08-02T02:10:23;18.16711486466811;;;17.625;93.0905871875183
15558;BME280;7880;50.110;9.372;2022-08-02T02:15:20;18.182243095734158;;;17.75;93.00197638271592
15558;BME280;7880;50.110;9.372;2022-08-02T02:20:23;18.24275604619179;;;17.75;92.0456197201828
15558;BME280;7880;50.110;9.372;2022-08-02T02:25:26;18.172157608065753;;;17.562;92.27657096243972
15558;BME280;7880;50.110;9.372;2022-08-02T02:30:30;18.01583269807161;;;17.562;93.47604998687761
15558;BME280;7880;50.110;9.372;2022-08-02T02:35:34;17.95531990477466;;;17.5;93.51096409382518
15558;BME280;7880;50.110;9.372;2022-08-02T02:40:37;17.88976442599669;;;17.5;93.48138903086156
15558;BME280;7880;50.110;9.372;2022-08-02T02:45:40;17.738482739613392;;;17.375;93.78131042055986
15558;BME280;7880;50.110;9.372;2022-08-02T02:50:43;17.698141000815667;;;17.187;94.36631088622889
15558;BME280;7880;50.110;9.372;2022-08-02T02:55:50;17.622500290774042;;;17.062;94.65953139090914
15558;BME280;7880;50.110;9.372;2022-08-02T03:01:58;17.561987769888947;;;16.937;93.83856932794457
15558;BME280;7880;50.110;9.372;2022-08-02T03:06:39;17.40062125241966;;;16.875;92.7551452865093
15558;BME280;7880;50.110;9.372;2022-08-02T03:11:41;17.319938105443725;;;16.75;94.48760504586312
15558;BME280;7880;50.110;9.372;2022-08-02T03:16:47;17.380450458690756;;;16.75;93.34251124180416
15558;BME280;7880;50.110;9.372;2022-08-02T03:21:51;17.208998900005827;;;16.625;93.67137186524634
15558;BME280;7880;50.110;9.372;2022-08-02T03:26:54;17.087974472908535;;;16.5;93.74621730369164
15558;BME280;7880;50.110;9.372;2022-08-02T03:31:57;17.108145199116553;;;16.437;93.59480057094878
15558;BME280;7880;50.110;9.372;2022-08-02T03:37:01;16.992163587012328;;;16.375;93.73929473259066
15558;BME280;7880;50.110;9.372;2022-08-02T03:42:06;16.58370783110731;;;16.062;95.11348850011319
15558;BME280;7880;50.110;9.372;2022-08-02T03:47:08;16.81062745975796;;;16.187;94.14059089472678
15558;BME280;7880;50.110;9.372;2022-08-02T03:52:14;16.704731559712673;;;16.187;94.50355227832397
15558;BME280;7880;50.110;9.372;2022-08-02T03:57:16;16.74507283983403;;;16.187;93.5963128980176
15558;BME280;7880;50.110;9.372;2022-08-02T04:02:20;16.64926232995931;;;16.062;94.75620834785123
15558;BME280;7880;50.110;9.372;2022-08-02T04:07:24;16.361831430724123;;;15.812;96.90137609516627
15558;BME280;7880;50.110;9.372;2022-08-02T04:12:32;16.684560926636912;;;15.875;93.95992776252069
15558;BME280;7880;50.110;9.372;2022-08-02T04:17:36;16.503025438502664;;;15.937;94.68945506142002
15558;BME280;7880;50.110;9.372;2022-08-02T04:22:38;16.694646242592718;;;16.062;93.8020814308263
15558;BME280;7880;50.110;9.372;2022-08-02T04:27:44;16.765243486879626;;;16.187;93.71561548437838
15558;BME280;7880;50.110;9.372;2022-08-02T04:32:44;16.639177019242197;;;16.187;94.31474733152861
15558;BME280;7880;50.110;9.372;2022-08-02T04:37:48;16.714816877996782;;;16.187;94.06460212913599
15558;BME280;7880;50.110;9.372;2022-08-02T04:43:01;16.573622527957195;;;16.187;94.767566478193
15558;BME280;7880;50.110;9.372;2022-08-02T04:48:07;16.573622527957195;;;16.125;94.7569628192977
15558;BME280;7880;50.110;9.372;2022-08-02T04:53:00;16.67951826909557;;;16.187;94.95635679297075
15558;BME280;7880;50.110;9.372;2022-08-02T04:58:04;16.740030178800225;;;16.312;94.56116860101979
15558;BME280;7880;50.110;9.372;2022-08-02T05:03:08;16.634134364320197;;;16.187;95.54422778689444
15558;BME280;7880;50.110;9.372;2022-08-02T05:08:14;16.765243486879626;;;16.187;94.39469143208423
15558;BME280;7880;50.110;9.372;2022-08-02T05:13:18;16.694646242592718;;;16.25;95.03257371290088
15558;BME280;7880;50.110;9.372;2022-08-02T05:18:25;16.75011550115887;;;16.25;94.94436303482843
15558;BME280;7880;50.110;9.372;2022-08-02T05:23:28;16.845926121628146;;;16.375;93.87981768035742
15558;BME280;7880;50.110;9.372;2022-08-02T05:28:31;16.99720626259805;;;16.562;93.62314753382536
15558;BME280;7880;50.110;9.372;2022-08-02T05:33:39;17.11823056396679;;;16.625;93.05439069379484
15558;BME280;7880;50.110;9.372;2022-08-02T05:38:38;17.15352935011033;;;16.812;92.98978939620947
15558;BME280;7880;50.110;9.372;2022-08-02T05:43:45;17.34010888520279;;;17.0;93.20988232388133
15558;BME280;7880;50.110;9.372;2022-08-02T05:48:46;17.420792050805176;;;17.062;91.2690541626897
15558;BME280;7880;50.110;9.372;2022-08-02T05:53:55;17.395578553550877;;;17.125;90.21297205816684
15558;BME280;7880;50.110;9.372;2022-08-02T05:58:59;17.380450458690756;;;17.187;90.87595875885971
15558;BME280;7880;50.110;9.372;2022-08-02T06:04:09;17.708226433768868;;;17.375;91.21360874701718
15558;BME280;7880;50.110;9.372;2022-08-02T06:08:24;17.814123550063233;;;17.562;90.77403502688065
15558;BME280;7880;50.110;9.372;2022-08-02T06:13:28;17.798995382734574;;;17.562;90.55395930963698
15558;BME280;7880;50.110;9.372;2022-08-02T06:18:32;17.99566176231601;;;17.812;88.32399757399386
15558;BME280;7880;50.110;9.372;2022-08-02T06:23:40;18.217542311741273;;;18.062;87.1335603588753
15558;BME280;7880;50.110;9.372;2022-08-02T06:28:39;18.298226287594296;;;18.187;85.82461298019462
15558;BME280;7880;50.110;9.372;2022-08-02T06:33:50;18.620962936064462;;;18.437;87.77130567971201
15558;BME280;7880;50.110;9.372;2022-08-02T06:39:02;18.822673946717988;;;18.75;85.65201708342467
15558;BME280;7880;50.110;9.372;2022-08-02T06:43:54;19.34208194250241;;;19.187;77.389498317249
15558;BME280;7880;50.110;9.372;2022-08-02T06:49:09;19.548837440746137;;;19.5;75.787165138697
15558;BME280;7880;50.110;9.372;2022-08-02T06:54:00;19.574051559367216;;;19.625;72.40536494863532
15558;BME280;7880;50.110;9.372;2022-08-02T06:59:03;19.584137208852916;;;19.625;67.86725021030092
15558;BME280;7880;50.110;9.372;2022-08-02T07:04:08;19.700122261611977;;;19.812;66.70685824742087
15558;BME280;7880;50.110;9.372;2022-08-02T07:09:11;19.891750077396864;;;19.937;65.4208569674338
15558;BME280;7880;50.110;9.372;2022-08-02T07:14:14;19.916964294970967;;;19.937;66.03138575911682
15558;BME280;7880;50.110;9.372;2022-08-02T07:19:20;20.063206900382646;;;20.125;64.99484261786695
15558;BME280;7880;50.110;9.372;2022-08-02T07:24:24;20.396035811310867;;;20.437;65.20951099928676
15558;BME280;7880;50.110;9.372;2022-08-02T07:29:25;20.385950068110834;;;20.437;63.449487692371925
15558;BME280;7880;50.110;9.372;2022-08-02T07:34:30;20.552364979777487;;;20.625;63.167465824462724
15558;BME280;7880;50.110;9.372;2022-08-02T07:39:38;20.658265543129527;;;20.687;64.46976390168344
15558;BME280;7880;50.110;9.372;2022-08-02T07:44:36;20.75912334183813;;;20.812;63.31433646561578
15558;BME280;7880;50.110;9.372;2022-08-02T07:49:39;21.01126834792667;;;21.062;59.677626791549436
15558;BME280;7880;50.110;9.372;2022-08-02T07:54:45;21.031439979845892;;;21.062;58.73133466927568
15558;BME280;7880;50.110;9.372;2022-08-02T07:59:47;21.1121265540889;;;21.125;59.68256732048978
15558;BME280;7880;50.110;9.372;2022-08-02T08:04:50;21.25332823829376;;;21.312;59.440379896010995
15558;BME280;7880;50.110;9.372;2022-08-02T08:09:54;21.3743584349344;;;21.25;58.785310686337304
15558;BME280;7880;50.110;9.372;2022-08-02T08:15:01;21.540775229036807;;;21.5;57.958327511189744
15558;BME280;7880;50.110;9.372;2022-08-02T08:20:03;21.50043173469603;;;21.437;57.13245926484713
15558;BME280;7880;50.110;9.372;2022-08-02T08:25:06;21.66180582381785;;;21.625;54.784545508043934
15558;BME280;7880;50.110;9.372;2022-08-02T08:30:12;21.803008396271615;;;21.625;55.71819225431068
15558;BME280;7880;50.110;9.372;2022-08-02T08:35:17;22.070285318844252;;;22.062;54.47936916563967
15558;BME280;7880;50.110;9.372;2022-08-02T08:40:24;22.277047272608616;;;22.187;54.15537618226905
15558;BME280;7880;50.110;9.372;2022-08-02T08:45:25;22.38294992619776;;;22.312;54.083060459918414
15558;BME280;7880;50.110;9.372;2022-08-02T08:50:34;22.25183237400488;;;22.312;53.31177407032508
15558;BME280;7880;50.110;9.372;2022-08-02T08:55:35;22.630056617036463;;;22.5;50.967445198673296
15558;BME280;7880;50.110;9.372;2022-08-02T09:00:38;22.796475802600618;;;22.812;50.06775728732553
15558;BME280;7880;50.110;9.372;2022-08-02T09:05:50;22.831776882708073;;;22.812;50.57548285294495
15558;BME280;7880;50.110;9.372;2022-08-02T09:10:47;22.816647846630076;;;22.625;51.621056047620996
15558;BME280;7880;50.110;9.372;2022-08-02T09:15:56;22.846905921405416;;;22.687;51.600176765101104
15558;BME280;7880;50.110;9.372;2022-08-02T09:20:58;23.0284545900824;;;22.937;52.662692294951476
15558;BME280;7880;50.110;9.372;2022-08-02T09:26:02;23.336079584155232;;;23.25;50.06570007348875
15558;BME280;7880;50.110;9.372;2022-08-02T09:31:06;23.457112665567546;;;23.312;50.92013478306272
15558;BME280;7880;50.110;9.372;2022-08-02T09:36:10;23.55293064057478;;;23.375;51.02652363938832
15558;BME280;7880;50.110;9.372;2022-08-02T09:41:19;23.86055748099461;;;23.625;52.33466665278885
15558;BME280;7880;50.110;9.372;2022-08-02T09:46:17;23.668920961418188;;;23.625;48.80204863336017
15558;BME280;7880;50.110;9.372;2022-08-02T09:51:24;23.895858990965642;;;23.687;50.71402570168484
15558;BME280;7880;50.110;9.372;2022-08-02T09:56:24;23.729437711671928;;;23.687;47.94023988529155
15558;BME280;7880;50.110;9.372;2022-08-02T10:01:30;23.895858990965642;;;23.625;49.41935150960074
15558;BME280;7880;50.110;9.372;2022-08-02T10:06:32;24.148013048345454;;;24.0;46.90986764103858
15558;BME280;7880;50.110;9.372;2022-08-02T10:11:37;24.39512473049108;;;24.187;46.95833438332722
15558;BME280;7880;50.110;9.372;2022-08-02T10:16:42;24.248874875024192;;;24.062;45.72958597789027
15558;BME280;7880;50.110;9.372;2022-08-02T10:21:51;24.51111616921262;;;24.312;46.75794003226683
15558;BME280;7880;50.110;9.372;2022-08-02T10:26:47;24.480857518181438;;;24.375;43.30621950712624
15558;BME280;7880;50.110;9.372;2022-08-02T10:31:59;24.82378951004357;;;24.625;45.558003979752826
15558;BME280;7880;50.110;9.372;2022-08-02T10:36:57;24.687625175714494;;;24.562;44.07601977261999
15558;BME280;7880;50.110;9.372;2022-08-02T10:42:00;25.025514839781682;;;24.75;43.97594917153448
15558;BME280;7880;50.110;9.372;2022-08-02T10:47:23;24.924652116704966;;;24.812;42.619623024887545
15558;BME280;7880;50.110;9.372;2022-08-02T10:52:12;25.055773679405682;;;24.875;43.36722529567516
15558;BME280;7880;50.110;9.372;2022-08-02T10:57:16;25.19698173618526;;;25.125;42.57265752985919
15558;BME280;7880;50.110;9.372;2022-08-02T11:02:43;24.90952271828428;;;24.875;40.83019670448254
15558;BME280;7880;50.110;9.372;2022-08-02T11:07:32;24.95491092140437;;;24.75;41.2641568390659
15558;BME280;7880;50.110;9.372;2022-08-02T11:12:57;25.055773679405682;;;24.875;42.42868734620801
15558;BME280;7880;50.110;9.372;2022-08-02T11:17:51;25.0709031031467;;;24.937;41.20993759264632
15558;BME280;7880;50.110;9.372;2022-08-02T11:22:44;25.267585850140314;;;25.125;42.2767185966744
15558;BME280;7880;50.110;9.372;2022-08-02T11:27:44;25.52983020139509;;;25.375;41.949105704760655
15558;BME280;7880;50.110;9.372;2022-08-02T11:32:50;25.47939853426651;;;25.312;41.96522220268595
15558;BME280;7880;50.110;9.372;2022-08-02T11:38:13;25.57017555605271;;;25.437;42.67484424349713
15558;BME280;7880;50.110;9.372;2022-08-02T11:43:01;25.49957119762548;;;25.375;41.10247155623929
15558;BME280;7880;50.110;9.372;2022-08-02T11:48:06;25.555046045873315;;;25.312;40.426506822549335
15558;BME280;7880;50.110;9.372;2022-08-02T11:53:13;25.847550373547712;;;25.687;41.80291227754006
15558;BME280;7880;50.110;9.372;2022-08-02T11:58:17;25.79207533961744;;;25.625;39.02974120929059
15558;BME280;7880;50.110;9.372;2022-08-02T12:03:22;25.403751088143327;;;25.312;38.990951107365916
15558;BME280;7880;50.110;9.372;2022-08-02T12:08:26;25.62565044912044;;;25.375;40.33328844934264
15558;BME280;7880;50.110;9.372;2022-08-02T12:14:00;25.696254909411074;;;25.5;37.60970162675625
15558;BME280;7880;50.110;9.372;2022-08-02T12:19:50;25.832420815346996;;;25.75;37.042139675410986
15558;BME280;7880;50.110;9.372;2022-08-02T12:24:35;25.867723121889867;;;25.687;38.00025248092182
15558;BME280;7880;50.110;9.372;2022-08-02T12:29:39;26.220746971666813;;;26.0;40.1867104825505
15558;BME280;7880;50.110;9.372;2022-08-02T12:35:00;26.084580460662256;;;26.0;37.884195863144825
15558;BME280;7880;50.110;9.372;2022-08-02T12:39:53;25.832420815346996;;;25.75;36.54642895249669
15558;BME280;7880;50.110;9.372;2022-08-02T12:44:55;25.8021617068036;;;25.812;37.28455840508313
15558;BME280;7880;50.110;9.372;2022-08-02T12:50:14;26.341784048452972;;;26.187;38.726967984633696
15558;BME280;7880;50.110;9.372;2022-08-02T12:55:14;26.230833388329483;;;26.187;39.272402698504564
15558;BME280;7880;50.110;9.372;2022-08-02T13:00:09;26.04423486851738;;;25.937;38.09360143601495
15558;BME280;7880;50.110;9.372;2022-08-02T13:05:10;25.797118523065002;;;25.75;38.24260158902696
15558;BME280;7880;50.110;9.372;2022-08-02T13:10:13;25.857636747136713;;;25.687;38.396697117636535
15558;BME280;7880;50.110;9.372;2022-08-02T13:15:19;25.95345735429437;;;25.875;38.181851370010044
15558;BME280;7880;50.110;9.372;2022-08-02T13:20:23;26.10979646521155;;;25.937;38.89224541924619
15558;BME280;7880;50.110;9.372;2022-08-02T13:25:30;25.943370969645912;;;25.875;39.244555158501846
15558;BME280;7880;50.110;9.372;2022-08-02T13:30:32;25.847550373547712;;;25.687;38.611412530274315
15558;BME280;7880;50.110;9.372;2022-08-02T13:35:35;25.93832777775824;;;25.812;38.991298520705186
15558;BME280;7880;50.110;9.372;2022-08-02T13:41:07;25.948414161824623;;;25.812;37.91750724904679
15558;BME280;7880;50.110;9.372;2022-08-02T13:45:46;26.11483966699452;;;25.937;37.19536447510008
15558;BME280;7880;50.110;9.372;2022-08-02T13:50:51;26.57881547608995;;;26.375;39.93425457496497
15558;BME280;7880;50.110;9.372;2022-08-02T13:55:57;26.235876597097377;;;26.25;37.38234453437787
15558;BME280;7880;50.110;9.372;2022-08-02T14:01:00;26.39221621325705;;;26.25;38.26945849796938
15558;BME280;7880;50.110;9.372;2022-08-02T14:06:06;26.558642563602188;;;26.5;37.56332443553329
15558;BME280;7880;50.110;9.372;2022-08-02T14:11:09;26.351870479085484;;;26.312;37.49224061766052
15558;BME280;7880;50.110;9.372;2022-08-02T14:16:13;26.25604943507933;;;26.187;36.55535669738702
15558;BME280;7880;50.110;9.372;2022-08-02T14:21:17;26.40230264971033;;;26.25;36.04165878119772
15558;BME280;7880;50.110;9.372;2022-08-02T14:26:24;26.45777807101258;;;26.375;36.344724233533164
15558;BME280;7880;50.110;9.372;2022-08-02T14:31:26;26.387172995466972;;;26.25;37.16681833561137
15558;BME280;7880;50.110;9.372;2022-08-02T14:36:30;26.377086560759928;;;26.312;36.46099121543127
15558;BME280;7880;50.110;9.372;2022-08-02T14:41:36;26.261092645302416;;;26.187;36.59943957268072
15558;BME280;7880;50.110;9.372;2022-08-02T14:46:40;26.45777807101258;;;26.312;37.624269911753174
15558;BME280;7880;50.110;9.372;2022-08-02T14:51:43;26.866279985010625;;;26.75;38.23571889918358
15558;BME280;7880;50.110;9.372;2022-08-02T14:56:47;26.911669204436475;;;26.812;38.37361909214812
15558;BME280;7880;50.110;9.372;2022-08-02T15:01:52;26.82593403197825;;;26.812;37.09340497575251
15558;BME280;7880;50.110;9.372;2022-08-02T15:06:56;26.785588097572326;;;26.625;37.18187215135196
15558;BME280;7880;50.110;9.372;2022-08-02T15:12:00;26.679680108377944;;;26.562;37.87743255679477
15558;BME280;7880;50.110;9.372;2022-08-02T15:17:03;26.891496215114604;;;26.812;36.419579917504265
15558;BME280;7880;50.110;9.372;2022-08-02T15:22:08;26.861236739862942;;;26.75;38.10328641826215
15558;BME280;7880;50.110;9.372;2022-08-02T15:27:13;26.59394516351167;;;26.562;36.16738363775359
15558;BME280;7880;50.110;9.372;2022-08-02T15:32:19;26.57377224753145;;;26.437;36.85718858640947
15558;BME280;7880;50.110;9.372;2022-08-02T15:37:24;26.5283832036017;;;26.375;36.774644155671986
15558;BME280;7880;50.110;9.372;2022-08-02T15:42:32;26.639334241492907;;;26.5;36.96173064403064
15558;BME280;7880;50.110;9.372;2022-08-02T15:47:35;26.785588097572326;;;26.625;38.67719341661051
15558;BME280;7880;50.110;9.372;2022-08-02T15:52:40;26.62420454621315;;;26.5;39.31138587953511
15558;BME280;7880;50.110;9.372;2022-08-02T15:57:49;26.477950960217278;;;26.312;36.372194744851015
15558;BME280;7880;50.110;9.372;2022-08-02T16:02:51;26.45777807101258;;;26.312;35.79304833476445
15558;BME280;7880;50.110;9.372;2022-08-02T16:07:58;26.6443774738349;;;26.5;37.49687603214236
15558;BME280;7880;50.110;9.372;2022-08-02T16:14:11;26.56872901926399;;;26.437;37.25440143663925
15558;BME280;7880;50.110;9.372;2022-08-02T16:18:40;26.538469655771042;;;26.375;37.45307375673306
15558;BME280;7880;50.110;9.372;2022-08-02T16:23:44;26.563685791287572;;;26.375;37.828051000945045
15558;BME280;7880;50.110;9.372;2022-08-02T16:28:49;26.452734849439004;;;26.312;37.96063256574871
15558;BME280;7880;50.110;9.372;2022-08-02T16:33:55;26.30143833756447;;;26.125;37.99950547176314
15558;BME280;7880;50.110;9.372;2022-08-02T16:38:58;26.281265489105134;;;26.125;37.790099316147675
15558;BME280;7880;50.110;9.372;2022-08-02T16:44:04;26.215703763772034;;;26.062;37.62491280196926
15558;BME280;7880;50.110;9.372;2022-08-02T16:49:10;26.367000127217032;;;26.125;38.583664574243414
15558;BME280;7880;50.110;9.372;2022-08-02T16:54:14;26.377086560759928;;;26.187;37.66859249878279
15558;BME280;7880;50.110;9.372;2022-08-02T16:59:22;26.321611190680414;;;26.125;38.07663570896671
15558;BME280;7880;50.110;9.372;2022-08-02T17:04:23;26.39725943133817;;;26.187;37.53621549308637
15558;BME280;7880;50.110;9.372;2022-08-02T17:09:25;26.407345868373522;;;26.25;38.4844240248686
15558;BME280;7880;50.110;9.372;2022-08-02T17:14:29;26.321611190680414;;;26.125;38.06561199541776
15558;BME280;7880;50.110;9.372;2022-08-02T17:19:32;26.2762222777179;;;26.062;38.01608508387392
15558;BME280;7880;50.110;9.372;2022-08-02T17:24:38;26.336740833573277;;;26.125;39.173329645664076
15558;BME280;7880;50.110;9.372;2022-08-02T17:29:45;26.06440766226151;;;26.0;38.71048514938808
15558;BME280;7880;50.110;9.372;2022-08-02T17:34:45;26.10979646521155;;;25.937;38.73801993160144
15558;BME280;7880;50.110;9.372;2022-08-02T17:39:49;26.074494060879807;;;25.937;38.62235809632164
15558;BME280;7880;50.110;9.372;2022-08-02T17:44:57;25.8021617068036;;;25.687;43.100225657122394
15558;BME280;7880;50.110;9.372;2022-08-02T17:49:58;25.509657531051197;;;25.25;46.75973187517095
15558;BME280;7880;50.110;9.372;2022-08-02T17:55:04;25.388621606776724;;;25.125;48.46886752298859
15558;BME280;7880;50.110;9.372;2022-08-02T18:00:10;25.116291390085827;;;24.812;51.00479374557332
15558;BME280;7880;50.110;9.372;2022-08-02T18:05:14;24.808660129085183;;;24.5;52.59383601744405
15558;BME280;7880;50.110;9.372;2022-08-02T18:10:18;24.70275453571812;;;24.312;53.602047784053255
15558;BME280;7880;50.110;9.372;2022-08-02T18:15:28;24.329564420186216;;;24.0;54.91656073595998
15558;BME280;7880;50.110;9.372;2022-08-02T18:20:26;24.148013048345454;;;23.687;56.24138093246088
15558;BME280;7880;50.110;9.372;2022-08-02T18:25:29;23.81516984627233;;;23.375;55.37751469801953
15558;BME280;7880;50.110;9.372;2022-08-02T18:30:34;23.593275082536273;;;23.125;55.76692996009205
15558;BME280;7880;50.110;9.372;2022-08-02T18:35:38;23.512586217239733;;;22.937;55.605759401730715
15558;BME280;7880;50.110;9.372;2022-08-02T18:40:46;23.28564918304328;;;22.812;56.756852201366335
15558;BME280;7880;50.110;9.372;2022-08-02T18:45:45;23.0284545900824;;;22.5;57.350141410362184
15558;BME280;7880;50.110;9.372;2022-08-02T18:50:51;23.11922906586551;;;22.437;58.11031376029871
15558;BME280;7880;50.110;9.372;2022-08-02T18:56:01;22.635099618003004;;;22.125;58.208295568966776
15558;BME280;7880;50.110;9.372;2022-08-02T19:01:03;22.38294992619776;;;21.812;59.3101626658197
15558;BME280;7880;50.110;9.372;2022-08-02T19:06:05;22.357734997035003;;;21.687;58.7388638670438
15558;BME280;7880;50.110;9.372;2022-08-02T19:11:08;22.04507047990337;;;21.437;59.93963493527561
15558;BME280;7880;50.110;9.372;2022-08-02T19:16:23;21.878652725374558;;;21.187;60.18087432325576
15558;BME280;7880;50.110;9.372;2022-08-02T19:21:18;21.76770773176686;;;21.125;60.42468999881245
15558;BME280;7880;50.110;9.372;2022-08-02T19:26:25;21.72736413265229;;;20.875;59.39278269235776
15558;BME280;7880;50.110;9.372;2022-08-02T19:31:27;21.581118742004037;;;20.875;60.61574987779165
15558;BME280;7880;50.110;9.372;2022-08-02T19:36:32;21.460088258981706;;;20.687;61.19447468163345
15558;BME280;7880;50.110;9.372;2022-08-02T19:41:34;21.313843315659323;;;20.312;61.82013625510245
15558;BME280;7880;50.110;9.372;2022-08-02T19:46:39;21.238199475500732;;;20.312;62.21108318542388
15558;BME280;7880;50.110;9.372;2022-08-02T19:51:44;20.804509389237502;;;20.187;64.52173815619717
15558;BME280;7880;50.110;9.372;2022-08-02T19:56:46;20.82972387020127;;;19.875;64.28014962111881
15558;BME280;7880;50.110;9.372;2022-08-02T20:01:50;20.693565759435295;;;19.812;65.03348011445277
15558;BME280;7880;50.110;9.372;2022-08-02T20:06:54;20.52210769953672;;;19.5;64.89884131327679
15558;BME280;7880;50.110;9.372;2022-08-02T20:12:00;20.50697906334535;;;19.687;64.2555552415715
15558;BME280;7880;50.110;9.372;2022-08-02T20:17:10;20.34560710695223;;;19.437;64.94742617046852
15558;BME280;7880;50.110;9.372;2022-08-02T20:22:07;20.315349898306884;;;19.375;65.78710350967341
15558;BME280;7880;50.110;9.372;2022-08-02T20:27:22;20.068249753210694;;;19.25;66.15962093788364
15558;BME280;7880;50.110;9.372;2022-08-02T20:32:22;19.93209282900789;;;19.25;66.0646830424314
15558;BME280;7880;50.110;9.372;2022-08-02T20:37:29;19.957307058223524;;;18.937;65.94234623339182
15558;BME280;7880;50.110;9.372;2022-08-02T20:42:26;19.78080760650919;;;18.687;66.56133377227098
15558;BME280;7880;50.110;9.372;2022-08-02T20:47:39;19.639608301833505;;;18.687;66.68674488406552
15558;BME280;7880;50.110;9.372;2022-08-02T20:52:38;19.493366405391136;;;18.687;67.20997549112083
15558;BME280;7880;50.110;9.372;2022-08-02T20:57:40;19.392510067694822;;;18.562;67.18172673795064